« 美ら島エアーフェスタ2017【初日5】 那覇空港 2017/12/9 sat | トップページ | 美ら島エアーフェスタ2017【初日6終】 那覇空港 2017/12/9 sat »

2017/12/27

定点 富山空港 2017/12/27 wed

今期二度目の雪降り。昨夕から降り出し、朝には10cm程積もっていました。まあ、まだまだたいしたことない雪です。

RJNT 270000Z 27006KT 9999 -SHSN FEW008 SCT012 BKN025 00/M02 Q1015

20171227_rjnt_00sea

313を待ったのですが、雪雲が入り、おまけにRNAV02に行ったので、富山湾の波から・・ 

20171227_rjnt_01rw

2時間ほどで5cmほどかな。滑走路は白く覆われています。

20171227_rjnt_02snowsw

10時過ぎから除雪開始

20171227_rjnt_03sicar

ひゃー、せっかく除雪したところに雪雲。SIが出ますか・・

RJNT 270000Z 27006KT 9999 -SHSN FEW008 SCT012 BKN025 00/M02 Q1015

20171227_rjnt_04ja79an

とりあえずSIはOK。視程アップを待って遅れ出発です。

20171227_rjnt_05ja79an

20171227_rjnt_06ja79an

20171227_rjnt_07ja79an

ANA316 RJNT-RJTT JA79AN B737-881

RJNT 270203Z 30006KT 2400 -SHSN FEW005 BKN008 BKN020 M00/M01 Q1015 RMK 1ST005 5CU008 7CU020 A2998

20171227_rjnt_08b2297

タイミング良く、除雪後の雲の間にアプローチできた。

20171227_rjnt_09b2297

CSN613 ZYTL-RJNT B-2297 A319-132

RJNT 270218Z 27007KT 210V320 2400 -SHSN FEW005 BKN008 BKN020 M00/M01 Q1015 RMK 1ST005 5CU008 7CU020 A2997
RJNT 270216Z 27007KT 220V320 1500 -SHSN FEW005 BKN008 BKN020 M00/M01 Q1015 RMK 1ST005 5CU008 7CU020 A2997
RJNT 270211Z 29007KT 260V320 0700 SHSN VV003 M00/M01 Q1015 RMK A2999

上記のように、天候はめまぐるしく変るので、タイミングが合うか合わないかの博打みたいなものです。

20171227_rjnt_10ja54an

すぐ、視程が落ちます

20171227_rjnt_11ja54an

ANA315 RJTT-RJNT JA54AN B737-881

20171227_rjnt_12ja54an

南方が出発しようとしましたが、除雪が必要となり、待ちぼうけ。

20171227_rjnt_13snowsw

富山空港は6台が滑走路除雪に入ります。

20171227_rjnt_14snowsw

しばらく空いていた空も、アット言う間に雪が襲ってくる。

20171227_rjnt_15snowsw

滑走路を削るように雪を飛ばして行きます。

RJNT 270447Z 28009KT 6000 -SHSN FEW003 SCT008 BKN020 00/M01 Q1015 RMK 1ST003 3CU008 5CU020 A2998

20171227_rjnt_16sun

キャー、雲が切れて太陽さん・・ でも・・

20171227_rjnt_17b2297

冬景色ですねー

20171227_rjnt_18b2297

20171227_rjnt_19b2297

CSN614 RJNT-ZYTL B-2297 A319-132

RJNT 270447Z 28009KT 6000 -SHSN FEW003 SCT008 BKN020 00/M01 Q1015 RMK 1ST003 3CU008 5CU020 A2998

20171227_rjnt_20ja54an

南方の後すぐ出発したのですが、もう雪の中

20171227_rjnt_21ja54an

ANA1181 RJNT-RJCC JA54AN B737-881

20171227_rjnt_22ja54an

今日は、長崎からのフジドリームのチャーター便が予定されていたのですが、早々と欠航となってしまい、これで撤収です。でも、この後警察さんが上がったなぁ。

|

« 美ら島エアーフェスタ2017【初日5】 那覇空港 2017/12/9 sat | トップページ | 美ら島エアーフェスタ2017【初日6終】 那覇空港 2017/12/9 sat »

富山空港」カテゴリの記事

コメント

コメントを書く



(ウェブ上には掲載しません)


コメントは記事投稿者が公開するまで表示されません。



トラックバック


この記事へのトラックバック一覧です: 定点 富山空港 2017/12/27 wed:

« 美ら島エアーフェスタ2017【初日5】 那覇空港 2017/12/9 sat | トップページ | 美ら島エアーフェスタ2017【初日6終】 那覇空港 2017/12/9 sat »